createdAt,value
2019-05-20T00:02:27.983Z,97086.52
2019-05-20T00:04:54.928Z,97092.77
2019-05-20T00:07:24.446Z,97095.85
2019-05-20T00:09:54.212Z,97097.72
2019-05-20T00:12:23.905Z,97103.27
2019-05-20T00:14:53.568Z,97101.44
2019-05-20T00:17:23.330Z,97094.19
2019-05-20T00:19:52.798Z,97092.35
2019-05-20T00:22:22.341Z,97097.19
2019-05-20T00:24:51.786Z,97101.40
2019-05-20T00:27:21.668Z,97105.34
2019-05-20T00:29:51.424Z,97102.84
2019-05-20T00:32:21.163Z,97104.98
2019-05-20T00:34:51.269Z,97099.88
2019-05-20T00:37:21.009Z,97097.07
2019-05-20T00:39:50.659Z,97098.86
2019-05-20T00:42:20.490Z,97095.70
2019-05-20T00:44:49.981Z,97095.08
2019-05-20T00:47:19.635Z,97100.81
2019-05-20T00:49:49.238Z,97109.98
2019-05-20T00:52:19.189Z,97119.30
2019-05-20T00:54:49.318Z,97120.58
2019-05-20T00:57:18.868Z,97105.88
2019-05-20T00:59:48.661Z,97107.71
2019-05-20T01:02:18.526Z,97113.64
2019-05-20T01:04:48.146Z,97115.59
2019-05-20T01:07:17.904Z,97102.92
2019-05-20T01:09:47.719Z,97097.55
2019-05-20T01:12:17.299Z,97095.16
2019-05-20T01:14:47.043Z,97101.52
2019-05-20T01:17:16.657Z,97099.92
2019-05-20T01:19:46.551Z,97099.80
2019-05-20T01:22:16.169Z,97106.20
2019-05-20T01:24:45.580Z,97109.71
2019-05-20T01:27:15.174Z,97110.18
2019-05-20T01:29:44.645Z,97112.70
2019-05-20T01:32:14.382Z,97114.02
2019-05-20T01:34:45.305Z,97104.81
2019-05-20T01:37:15.009Z,97109.47
2019-05-20T01:39:44.759Z,97114.48
2019-05-20T01:42:14.166Z,97105.85
2019-05-20T01:44:43.994Z,97107.63
2019-05-20T01:47:13.498Z,97100.27
2019-05-20T01:49:43.274Z,97104.59
2019-05-20T01:52:12.690Z,97107.08
2019-05-20T01:54:42.452Z,97112.31
2019-05-20T01:57:12.229Z,97122.03
2019-05-20T01:59:41.999Z,97114.26
2019-05-20T02:02:12.225Z,97114.32
2019-05-20T02:04:41.662Z,97115.13
2019-05-20T02:07:11.458Z,97125.98
2019-05-20T02:09:40.976Z,97133.40
2019-05-20T02:12:10.362Z,97149.63
2019-05-20T02:14:45.568Z,97160.47
2019-05-20T02:17:15.074Z,97158.46
2019-05-20T02:19:44.576Z,97163.81
2019-05-20T02:22:14.413Z,97146.76
2019-05-20T02:24:44.153Z,97134.33
2019-05-20T02:27:13.976Z,97134.22
2019-05-20T02:29:43.565Z,97127.67
2019-05-20T02:32:13.235Z,97130.20
2019-05-20T02:34:42.854Z,97125.92
2019-05-20T02:37:12.563Z,97132.73
2019-05-20T02:39:42.324Z,97154.20
2019-05-20T02:42:12.133Z,97162.59
2019-05-20T02:44:41.881Z,97166.78
2019-05-20T02:47:11.697Z,97163.61
2019-05-20T02:49:41.130Z,97157.81
2019-05-20T02:52:10.932Z,97158.56
2019-05-20T02:54:40.635Z,97153.13
2019-05-20T02:57:10.320Z,97147.47
2019-05-20T02:59:40.111Z,97155.03
2019-05-20T03:02:09.792Z,97158.66
2019-05-20T03:04:39.563Z,97166.20
2019-05-20T03:07:09.489Z,97171.47
2019-05-20T03:09:39.258Z,97179.16
2019-05-20T03:12:09.116Z,97169.48
2019-05-20T03:14:38.818Z,97185.58
2019-05-20T03:17:08.674Z,97182.19
2019-05-20T03:19:38.162Z,97186.16
2019-05-20T03:22:07.938Z,97184.96
2019-05-20T03:24:37.760Z,97190.09
2019-05-20T03:27:07.287Z,97184.44
2019-05-20T03:29:36.996Z,97201.06
2019-05-20T03:32:06.661Z,97206.14
2019-05-20T03:34:47.750Z,97211.45
2019-05-20T03:37:07.312Z,97220.73
2019-05-20T03:39:37.058Z,97216.93
2019-05-20T03:42:06.455Z,97213.92
2019-05-20T03:44:36.140Z,97209.49
2019-05-20T03:47:05.656Z,97216.07
2019-05-20T03:49:35.236Z,97218.03
2019-05-20T03:52:04.956Z,97231.63
2019-05-20T03:54:34.670Z,97241.11
2019-05-20T03:57:04.512Z,97245.98
2019-05-20T03:59:33.937Z,97233.81
2019-05-20T04:02:03.849Z,97215.52
2019-05-20T04:04:33.531Z,97221.31
2019-05-20T04:07:03.191Z,97225.11
2019-05-20T04:09:32.706Z,97226.11
2019-05-20T04:12:02.262Z,97223.66
2019-05-20T04:14:32.059Z,97233.11
2019-05-20T04:17:01.827Z,97242.00
2019-05-20T04:19:31.538Z,97250.59
2019-05-20T04:22:01.389Z,97253.23
2019-05-20T04:24:31.170Z,97255.24
2019-05-20T04:27:01.735Z,97256.81
2019-05-20T04:29:31.510Z,97260.00
2019-05-20T04:32:01.068Z,97257.77
2019-05-20T04:34:30.741Z,97255.19
2019-05-20T04:37:00.540Z,97252.42
2019-05-20T04:39:30.034Z,97243.16
2019-05-20T04:41:59.735Z,97251.15
2019-05-20T04:44:29.515Z,97247.86
2019-05-20T04:46:59.212Z,97240.66
2019-05-20T04:49:29.129Z,97236.47
2019-05-20T04:51:58.869Z,97237.33
2019-05-20T04:54:28.297Z,97239.81
2019-05-20T04:56:58.061Z,97236.32
2019-05-20T04:59:27.806Z,97235.24
2019-05-20T05:01:57.518Z,97236.45
2019-05-20T05:04:26.934Z,97247.39
2019-05-20T05:06:56.899Z,97249.06
2019-05-20T05:09:26.391Z,97240.38
2019-05-20T05:11:55.788Z,97242.50
2019-05-20T05:14:25.655Z,97246.84
2019-05-20T05:16:55.448Z,97244.77
2019-05-20T05:19:25.347Z,97237.02
2019-05-20T05:21:55.231Z,97230.76
2019-05-20T05:24:25.141Z,97227.95
2019-05-20T05:26:54.542Z,97225.20
2019-05-20T05:29:24.581Z,97217.91
2019-05-20T05:31:54.193Z,97218.92
2019-05-20T05:34:24.030Z,97222.61
2019-05-20T05:36:53.619Z,97224.38
2019-05-20T05:39:23.379Z,97221.38
2019-05-20T05:41:53.127Z,97227.90
2019-05-20T05:44:22.982Z,97229.31
2019-05-20T05:46:52.389Z,97236.80
2019-05-20T05:49:22.137Z,97239.97
2019-05-20T05:51:52.094Z,97234.92
2019-05-20T05:54:21.810Z,97233.86
2019-05-20T05:56:51.408Z,97228.84
2019-05-20T05:59:21.127Z,97231.85
2019-05-20T06:01:50.828Z,97239.66
2019-05-20T06:04:20.459Z,97248.63
2019-05-20T06:06:50.170Z,97249.27
2019-05-20T06:09:19.689Z,97249.25
2019-05-20T06:11:49.357Z,97242.34
2019-05-20T06:14:18.828Z,97233.27
2019-05-20T06:16:50.405Z,97242.20
2019-05-20T06:19:20.125Z,97242.28
2019-05-20T06:21:49.948Z,97243.02
2019-05-20T06:24:19.808Z,97249.32
2019-05-20T06:26:49.328Z,97246.88
2019-05-20T06:29:19.099Z,97238.90
2019-05-20T06:31:48.817Z,97237.44
2019-05-20T06:34:18.498Z,97237.30
2019-05-20T06:36:50.465Z,97231.38
2019-05-20T06:39:19.917Z,97232.56
2019-05-20T06:41:49.507Z,97221.24
2019-05-20T06:44:19.038Z,97217.45
2019-05-20T06:46:48.766Z,97222.67
2019-05-20T06:49:18.655Z,97215.17
2019-05-20T06:51:48.415Z,97212.34
2019-05-20T06:54:18.212Z,97223.27
2019-05-20T06:56:48.065Z,97229.28
2019-05-20T06:59:17.628Z,97231.28
2019-05-20T07:01:47.141Z,97235.27
2019-05-20T07:04:16.763Z,97228.91
2019-05-20T07:06:47.687Z,97237.57
2019-05-20T07:09:17.381Z,97237.70
2019-05-20T07:11:52.692Z,97235.22
2019-05-20T07:14:18.537Z,97238.16
2019-05-20T07:16:47.935Z,97241.59
2019-05-20T07:19:17.362Z,97235.73
2019-05-20T07:21:47.070Z,97233.59
2019-05-20T07:24:16.567Z,97234.27
2019-05-20T07:26:46.153Z,97232.98
2019-05-20T07:29:15.832Z,97241.75
2019-05-20T07:31:45.528Z,97237.48
2019-05-20T07:34:15.039Z,97242.91
2019-05-20T07:37:01.476Z,97242.47
2019-05-20T07:39:16.153Z,97229.32
2019-05-20T07:41:45.665Z,97233.81
2019-05-20T07:44:15.463Z,97232.59
2019-05-20T07:46:45.569Z,97223.92
2019-05-20T07:49:16.114Z,97223.30
2019-05-20T07:51:47.245Z,97225.73
2019-05-20T07:54:17.391Z,97228.98
2019-05-20T07:56:49.568Z,97228.09
2019-05-20T07:59:22.068Z,97238.08
2019-05-20T08:01:51.913Z,97237.94
2019-05-20T08:04:21.641Z,97237.73
2019-05-20T08:06:51.257Z,97243.78
2019-05-20T08:09:20.950Z,97245.14
2019-05-20T08:11:50.372Z,97234.09
2019-05-20T08:14:20.254Z,97236.66
2019-05-20T08:16:50.176Z,97241.92
2019-05-20T08:19:19.850Z,97237.71
2019-05-20T08:21:49.777Z,97239.83
2019-05-20T08:24:19.407Z,97237.48
2019-05-20T08:26:49.123Z,97231.09
2019-05-20T08:29:19.029Z,97224.39
2019-05-20T08:31:48.728Z,97216.11
2019-05-20T08:34:18.651Z,97211.70
2019-05-20T08:36:48.452Z,97207.04
2019-05-20T08:39:18.180Z,97200.34
2019-05-20T08:41:47.902Z,97203.45
2019-05-20T08:44:17.682Z,97210.30
2019-05-20T08:46:47.207Z,97213.61
2019-05-20T08:49:16.962Z,97213.13
2019-05-20T08:51:46.477Z,97208.64
2019-05-20T08:54:16.229Z,97205.89
2019-05-20T08:56:49.278Z,97208.20
2019-05-20T08:59:17.490Z,97207.96
2019-05-20T09:01:47.373Z,97205.82
2019-05-20T09:04:17.099Z,97207.06
2019-05-20T09:06:46.914Z,97210.45
2019-05-20T09:09:16.554Z,97208.41
2019-05-20T09:11:47.948Z,97206.05
2019-05-20T09:14:18.020Z,97210.33
2019-05-20T09:16:47.600Z,97210.34
2019-05-20T09:19:17.400Z,97202.95
2019-05-20T09:21:47.133Z,97196.69
2019-05-20T09:24:18.967Z,97200.46
2019-05-20T09:26:48.134Z,97195.37
2019-05-20T09:29:17.996Z,97199.32
2019-05-20T09:31:47.859Z,97196.09
2019-05-20T09:34:18.825Z,97198.95
2019-05-20T09:36:48.548Z,97201.92
2019-05-20T09:39:18.147Z,97201.14
2019-05-20T09:41:47.735Z,97197.08
2019-05-20T09:44:17.591Z,97194.19
2019-05-20T09:46:47.387Z,97192.67
2019-05-20T09:49:17.018Z,97190.84
2019-05-20T09:51:46.679Z,97185.06
2019-05-20T09:54:16.464Z,97193.92
2019-05-20T09:56:46.140Z,97193.87
2019-05-20T09:59:16.549Z,97192.47
2019-05-20T10:01:46.102Z,97194.09
2019-05-20T10:04:15.874Z,97190.22
2019-05-20T10:06:45.958Z,97194.63
2019-05-20T10:09:15.392Z,97202.02
2019-05-20T10:11:45.339Z,97203.23
2019-05-20T10:14:15.179Z,97201.38
2019-05-20T10:16:45.024Z,97204.05
2019-05-20T10:19:14.451Z,97195.93
2019-05-20T10:21:44.161Z,97194.61
2019-05-20T10:24:13.956Z,97198.20
2019-05-20T10:26:43.625Z,97207.69
2019-05-20T10:29:13.460Z,97199.30
2019-05-20T10:31:42.980Z,97188.80
2019-05-20T10:34:12.765Z,97186.28
2019-05-20T10:36:42.638Z,97179.64
2019-05-20T10:39:12.462Z,97190.98
2019-05-20T10:41:42.188Z,97193.13
2019-05-20T10:44:11.612Z,97198.95
2019-05-20T10:46:41.434Z,97189.95
2019-05-20T10:49:11.227Z,97183.44
2019-05-20T10:51:40.966Z,97194.75
2019-05-20T10:54:10.901Z,97191.72
2019-05-20T10:56:40.807Z,97179.13
2019-05-20T10:59:12.130Z,97168.91
2019-05-20T11:01:41.705Z,97163.61
2019-05-20T11:04:11.487Z,97156.48
2019-05-20T11:06:41.013Z,97140.40
2019-05-20T11:09:14.025Z,97140.86
2019-05-20T11:11:42.075Z,97141.22
2019-05-20T11:14:11.799Z,97140.45
2019-05-20T11:16:41.819Z,97138.16
2019-05-20T11:19:11.274Z,97148.95
2019-05-20T11:21:41.031Z,97144.02
2019-05-20T11:24:10.748Z,97139.56
2019-05-20T11:26:40.535Z,97129.52
2019-05-20T11:29:10.319Z,97132.91
2019-05-20T11:31:40.301Z,97124.33
2019-05-20T11:34:10.175Z,97134.63
2019-05-20T11:36:40.005Z,97125.27
2019-05-20T11:39:09.938Z,97118.23
2019-05-20T11:41:52.651Z,97116.56
2019-05-20T11:44:12.136Z,97106.34
2019-05-20T11:46:41.775Z,97105.03
2019-05-20T11:49:11.526Z,97105.00
2019-05-20T11:51:41.154Z,97092.44
2019-05-20T11:54:11.123Z,97090.47
2019-05-20T11:56:40.569Z,97090.91
2019-05-20T11:59:10.574Z,97090.66
2019-05-20T12:01:39.959Z,97082.93
2019-05-20T12:04:09.386Z,97079.55
2019-05-20T12:06:39.174Z,97079.48
2019-05-20T12:09:09.281Z,97073.59
2019-05-20T12:11:39.102Z,97080.28
2019-05-20T12:14:08.892Z,97067.41
2019-05-20T12:16:38.635Z,97078.02
2019-05-20T12:19:08.124Z,97058.31
2019-05-20T12:21:37.952Z,97050.94
2019-05-20T12:24:07.645Z,97052.11
2019-05-20T12:26:37.243Z,97040.02
2019-05-20T12:29:06.782Z,97045.10
2019-05-20T12:31:36.184Z,97042.61
2019-05-20T12:34:05.955Z,97040.31
2019-05-20T12:36:35.831Z,97050.56
2019-05-20T12:39:07.156Z,97049.00
2019-05-20T12:41:36.876Z,97037.80
2019-05-20T12:44:11.790Z,97029.14
2019-05-20T12:46:38.270Z,97033.70
2019-05-20T12:49:07.929Z,97028.34
2019-05-20T12:51:37.704Z,97025.84
2019-05-20T12:54:07.511Z,97025.32
2019-05-20T12:56:37.142Z,97031.92
2019-05-20T12:59:06.875Z,97028.73
2019-05-20T13:01:36.592Z,97031.36
2019-05-20T13:04:06.078Z,97028.37
2019-05-20T13:06:35.651Z,97028.92
2019-05-20T13:09:06.846Z,97029.13
2019-05-20T13:11:36.496Z,97031.19
2019-05-20T13:14:05.915Z,97022.71
2019-05-20T13:16:35.780Z,97031.91
2019-05-20T13:19:05.563Z,97005.92
2019-05-20T13:21:35.447Z,97016.52
2019-05-20T13:24:05.245Z,97037.36
2019-05-20T13:26:35.057Z,97009.72
2019-05-20T13:29:04.875Z,97009.72
2019-05-20T13:31:34.625Z,97016.80
2019-05-20T13:34:04.493Z,97017.92
2019-05-20T13:36:34.215Z,97025.00
2019-05-20T13:39:04.991Z,97025.31
2019-05-20T13:41:34.488Z,97018.22
2019-05-20T13:44:04.010Z,97012.91
2019-05-20T13:46:33.648Z,97018.33
2019-05-20T13:49:03.532Z,97020.86
2019-05-20T13:51:33.282Z,97011.41
2019-05-20T13:54:03.133Z,97028.45
2019-05-20T13:56:32.793Z,97023.73
2019-05-20T13:59:02.613Z,97023.75
2019-05-20T14:01:32.407Z,97020.89
2019-05-20T14:04:02.133Z,97031.78
2019-05-20T14:06:31.846Z,97039.82
2019-05-20T14:09:01.326Z,97036.31
2019-05-20T14:11:34.755Z,97037.09
2019-05-20T14:14:02.214Z,97021.85
2019-05-20T14:16:31.914Z,97029.73
2019-05-20T14:19:01.718Z,97037.66
2019-05-20T14:21:31.409Z,97024.37
2019-05-20T14:24:01.142Z,97034.27
2019-05-20T14:26:31.079Z,97040.24
2019-05-20T14:29:00.599Z,97062.41
2019-05-20T14:31:30.015Z,97075.12
2019-05-20T14:33:59.765Z,97083.60
2019-05-20T14:36:39.314Z,97089.95
2019-05-20T14:39:00.673Z,97097.36
2019-05-20T14:41:30.594Z,97121.30
2019-05-20T14:44:00.367Z,97120.31
2019-05-20T14:46:30.176Z,97116.11
2019-05-20T14:49:02.377Z,97129.72
2019-05-20T14:51:31.413Z,97137.81
2019-05-20T14:54:00.931Z,97148.86
2019-05-20T14:56:30.606Z,97145.82
2019-05-20T14:59:00.436Z,97171.48
2019-05-20T15:01:30.258Z,97190.70
2019-05-20T15:03:59.985Z,97201.64
2019-05-20T15:06:29.650Z,97226.03
2019-05-20T15:08:59.375Z,97230.47
2019-05-20T15:11:37.781Z,97238.04
2019-05-20T15:14:00.715Z,97240.80
2019-05-20T15:16:30.445Z,97245.54
2019-05-20T15:19:00.155Z,97239.64
2019-05-20T15:21:29.933Z,97246.45
2019-05-20T15:23:59.768Z,97244.77
2019-05-20T15:26:29.589Z,97254.01
2019-05-20T15:28:59.303Z,97261.74
2019-05-20T15:31:28.717Z,97263.78
2019-05-20T15:33:58.422Z,97275.85
2019-05-20T15:36:27.917Z,97283.48
2019-05-20T15:38:57.743Z,97278.41
2019-05-20T15:41:27.516Z,97287.86
2019-05-20T15:43:57.242Z,97292.61
2019-05-20T15:46:26.879Z,97279.33
2019-05-20T15:48:56.744Z,97259.56
2019-05-20T15:51:26.252Z,97253.45
2019-05-20T15:53:56.035Z,97254.87
2019-05-20T15:56:25.836Z,97260.22
2019-05-20T15:58:55.477Z,97275.14
2019-05-20T16:01:25.309Z,97284.80
2019-05-20T16:03:55.125Z,97278.67
2019-05-20T16:06:24.514Z,97281.41
2019-05-20T16:08:54.022Z,97290.38
2019-05-20T16:11:23.866Z,97286.26
2019-05-20T16:13:54.267Z,97286.08
2019-05-20T16:16:23.681Z,97293.73
2019-05-20T16:18:53.114Z,97288.52
2019-05-20T16:21:22.902Z,97276.11
2019-05-20T16:23:52.483Z,97269.34
2019-05-20T16:26:22.275Z,97274.30
2019-05-20T16:28:52.006Z,97274.23
2019-05-20T16:31:21.818Z,97274.44
2019-05-20T16:33:51.303Z,97277.79
2019-05-20T16:36:21.163Z,97279.06
2019-05-20T16:38:51.190Z,97269.34
2019-05-20T16:41:20.599Z,97265.81
2019-05-20T16:43:50.115Z,97267.79
2019-05-20T16:46:19.997Z,97253.33
2019-05-20T16:48:49.785Z,97250.88
2019-05-20T16:51:22.273Z,97271.89
2019-05-20T16:53:50.846Z,97273.95
2019-05-20T16:56:20.542Z,97285.33
2019-05-20T16:58:50.073Z,97285.86
2019-05-20T17:01:19.642Z,97300.66
2019-05-20T17:03:49.408Z,97298.47
2019-05-20T17:06:18.916Z,97307.20
2019-05-20T17:08:48.666Z,97307.22
2019-05-20T17:11:18.472Z,97313.85
2019-05-20T17:13:48.250Z,97314.10
2019-05-20T17:16:18.416Z,97325.02
2019-05-20T17:18:47.839Z,97333.11
2019-05-20T17:21:17.506Z,97333.22
2019-05-20T17:23:47.341Z,97327.53
2019-05-20T17:26:17.967Z,97329.81
2019-05-20T17:28:47.676Z,97333.09
2019-05-20T17:31:17.592Z,97332.47
2019-05-20T17:33:47.633Z,97342.94
2019-05-20T17:36:17.477Z,97331.56
2019-05-20T17:38:47.116Z,97329.41
2019-05-20T17:41:16.619Z,97329.88
2019-05-20T17:43:46.439Z,97329.14
2019-05-20T17:46:16.524Z,97335.66
2019-05-20T17:48:46.149Z,97323.38
2019-05-20T17:51:15.908Z,97316.48
2019-05-20T17:53:45.782Z,97330.01
2019-05-20T17:56:15.584Z,97339.58
2019-05-20T17:58:45.314Z,97334.61
2019-05-20T18:01:16.145Z,97336.46
2019-05-20T18:03:46.401Z,97340.84
2019-05-20T18:06:16.066Z,97352.34
2019-05-20T18:08:48.860Z,97355.96
2019-05-20T18:11:19.319Z,97369.28
2019-05-20T18:13:48.949Z,97371.21
2019-05-20T18:16:18.786Z,97376.16
2019-05-20T18:18:48.552Z,97377.25
2019-05-20T18:21:18.321Z,97391.57
2019-05-20T18:23:48.088Z,97398.44
2019-05-20T18:26:17.973Z,97399.77
2019-05-20T18:28:47.753Z,97400.11
2019-05-20T18:31:31.279Z,97397.91
2019-05-20T18:33:48.807Z,97401.61
2019-05-20T18:36:18.767Z,97392.63
2019-05-20T18:38:49.642Z,97399.89
2019-05-20T18:41:19.805Z,97404.72
2019-05-20T18:43:49.491Z,97405.21
2019-05-20T18:46:19.452Z,97411.04
2019-05-20T18:48:49.241Z,97398.56
2019-05-20T18:51:18.915Z,97395.05
2019-05-20T18:53:48.691Z,97395.86
2019-05-20T18:56:18.507Z,97397.13
2019-05-20T18:58:48.178Z,97403.78
2019-05-20T19:01:19.629Z,97402.92
2019-05-20T19:03:49.438Z,97410.63
2019-05-20T19:06:19.065Z,97404.38
2019-05-20T19:08:48.820Z,97405.23
2019-05-20T19:11:18.669Z,97408.36
2019-05-20T19:13:48.481Z,97427.13
2019-05-20T19:16:17.980Z,97436.58
2019-05-20T19:18:47.656Z,97442.55
2019-05-20T19:21:17.304Z,97455.97
2019-05-20T19:23:46.918Z,97459.81
2019-05-20T19:26:24.408Z,97451.59
2019-05-20T19:28:48.190Z,97461.94
2019-05-20T19:31:17.851Z,97471.25
2019-05-20T19:33:47.617Z,97477.91
2019-05-20T19:36:17.471Z,97453.25
2019-05-20T19:38:47.053Z,97425.13
2019-05-20T19:41:16.793Z,97421.39
2019-05-20T19:43:46.590Z,97432.41
2019-05-20T19:46:16.331Z,97440.38
2019-05-20T19:48:46.158Z,97457.35
2019-05-20T19:51:15.987Z,97453.52
2019-05-20T19:53:45.843Z,97459.48
2019-05-20T19:56:15.556Z,97461.55
2019-05-20T19:58:45.377Z,97453.52
2019-05-20T20:01:15.165Z,97458.31
2019-05-20T20:03:44.964Z,97458.53
2019-05-20T20:06:14.836Z,97465.64
2019-05-20T20:08:44.432Z,97475.16
2019-05-20T20:11:13.893Z,97486.52
2019-05-20T20:13:43.503Z,97491.48
2019-05-20T20:16:17.592Z,97476.86
2019-05-20T20:18:44.385Z,97474.92
2019-05-20T20:21:14.211Z,97475.95
2019-05-20T20:23:43.894Z,97473.94
2019-05-20T20:26:13.642Z,97464.89
2019-05-20T20:28:43.139Z,97457.20
2019-05-20T20:31:12.799Z,97459.41
2019-05-20T20:33:43.134Z,97449.82
2019-05-20T20:36:12.864Z,97437.29
2019-05-20T20:38:42.379Z,97445.50
2019-05-20T20:41:11.790Z,97443.59
2019-05-20T20:43:41.374Z,97444.98
2019-05-20T20:46:11.091Z,97454.33
2019-05-20T20:48:40.680Z,97454.16
2019-05-20T20:51:10.342Z,97459.17
2019-05-20T20:53:40.136Z,97464.61
2019-05-20T20:56:24.229Z,97474.08
2019-05-20T20:58:41.232Z,97477.53
2019-05-20T21:01:10.939Z,97482.27
2019-05-20T21:03:40.764Z,97487.58
2019-05-20T21:06:10.655Z,97496.40
2019-05-20T21:08:40.391Z,97486.13
2019-05-20T21:11:10.093Z,97489.62
2019-05-20T21:13:39.802Z,97501.98
2019-05-20T21:16:09.603Z,97511.63
2019-05-20T21:18:39.273Z,97514.39
2019-05-20T21:21:09.032Z,97506.17
2019-05-20T21:23:38.880Z,97512.98
2019-05-20T21:26:08.585Z,97511.70
2019-05-20T21:28:38.254Z,97512.94
2019-05-20T21:31:08.089Z,97507.25
2019-05-20T21:33:37.777Z,97508.03
2019-05-20T21:36:07.579Z,97511.72
2019-05-20T21:38:37.369Z,97509.30
2019-05-20T21:41:07.156Z,97510.67
2019-05-20T21:43:37.017Z,97505.39
2019-05-20T21:46:06.725Z,97516.55
2019-05-20T21:48:36.342Z,97512.73
2019-05-20T21:51:06.074Z,97508.77
2019-05-20T21:53:35.822Z,97521.94
2019-05-20T21:56:05.479Z,97523.81
2019-05-20T21:58:35.209Z,97520.05
2019-05-20T22:01:05.031Z,97529.89
2019-05-20T22:03:34.417Z,97534.11
2019-05-20T22:06:04.221Z,97529.11
2019-05-20T22:08:33.675Z,97534.03
2019-05-20T22:11:03.203Z,97524.95
2019-05-20T22:13:32.862Z,97530.64
2019-05-20T22:16:02.805Z,97531.01
2019-05-20T22:18:32.358Z,97536.50
2019-05-20T22:21:01.864Z,97537.08
2019-05-20T22:23:46.485Z,97529.78
2019-05-20T22:26:16.310Z,97533.28
2019-05-20T22:28:46.019Z,97533.10
2019-05-20T22:31:15.505Z,97540.45
2019-05-20T22:33:44.948Z,97540.04
2019-05-20T22:36:14.626Z,97537.88
2019-05-20T22:38:44.139Z,97525.88
2019-05-20T22:41:13.890Z,97519.62
2019-05-20T22:43:43.764Z,97533.83
2019-05-20T22:46:13.258Z,97530.59
2019-05-20T22:48:42.921Z,97524.44
2019-05-20T22:51:12.848Z,97521.23
2019-05-20T22:53:42.319Z,97525.66
2019-05-20T22:56:11.881Z,97522.75
2019-05-20T22:58:41.386Z,97523.46
2019-05-20T23:01:11.065Z,97512.33
2019-05-20T23:03:55.385Z,97518.30
2019-05-20T23:06:11.970Z,97517.83
2019-05-20T23:08:41.463Z,97503.13
2019-05-20T23:11:11.175Z,97504.45
2019-05-20T23:13:41.034Z,97517.45
2019-05-20T23:16:10.433Z,97515.20
2019-05-20T23:18:39.899Z,97513.90
2019-05-20T23:21:10.433Z,97515.75
2019-05-20T23:23:40.314Z,97519.40
2019-05-20T23:26:09.701Z,97517.08
2019-05-20T23:28:39.398Z,97523.71
2019-05-20T23:31:08.911Z,97524.94
2019-05-20T23:33:38.533Z,97519.17
2019-05-20T23:36:08.141Z,97521.30
2019-05-20T23:38:37.793Z,97533.32
2019-05-20T23:41:07.630Z,97539.53
2019-05-20T23:43:37.064Z,97526.52
2019-05-20T23:46:06.780Z,97538.64
2019-05-20T23:48:36.412Z,97537.89
2019-05-20T23:51:06.018Z,97532.67
2019-05-20T23:53:35.643Z,97530.27
2019-05-20T23:56:05.458Z,97528.66
2019-05-20T23:58:35.093Z,97517.22
